Time;durP1;ratioP1;P1;durP2;ratioP2;P2;SDS_P1;SDS_P2;PMS_P1;PMS_P2;Temp;Humidity;BMP_temperature;BMP_pressure;BME280_temperature;BME280_humidity;BME280_pressure;Samples;Min_cycle;Max_cycle;Signal;HPM_P1;HPM_P2
2023/07/06 00:04:44;;;;;;;5.80;2.90;;;15.80;1.00;;;;;;5004419;28;20391;-79
2023/07/06 00:10:33;;;;;;;4.57;2.50;;;15.90;1.00;;;;;;4991509;28;21029;-79
2023/07/06 00:17:06;;;;;;;5.47;3.07;;;15.80;1.00;;;;;;4995845;28;20416;-79
2023/07/06 00:19:54;;;;;;;8.13;2.53;;;15.80;1.00;;;;;;4992517;28;20425;-79
2023/07/06 00:22:48;;;;;;;6.90;3.23;;;15.90;1.00;;;;;;5003104;28;20477;-79
2023/07/06 00:28:36;;;;;;;4.10;3.03;;;15.80;1.00;;;;;;4984141;28;20803;-79
2023/07/06 00:31:10;;;;;;;6.23;3.47;;;15.80;1.00;;;;;;5001625;28;20413;-73
2023/07/06 00:33:39;;;;;;;7.93;3.30;;;15.80;1.00;;;;;;4989234;28;20535;-73
2023/07/06 00:36:05;;;;;;;6.53;2.93;;;15.70;1.00;;;;;;5005648;28;20432;-73
2023/07/06 00:38:32;;;;;;;6.87;3.30;;;15.70;1.00;;;;;;5001810;28;20475;-73
2023/07/06 00:40:58;;;;;;;7.67;3.03;;;15.80;1.00;;;;;;4998905;28;20882;-73
2023/07/06 00:43:27;;;;;;;6.00;3.10;;;15.80;1.00;;;;;;4991195;28;20182;-73
2023/07/06 00:49:17;;;;;;;7.50;2.97;;;15.70;1.00;;;;;;4979119;28;20444;-79
2023/07/06 00:52:13;;;;;;;7.90;3.40;;;15.70;1.00;;;;;;4994208;28;20385;-80
2023/07/06 00:58:09;;;;;;;6.43;3.63;;;15.70;1.00;;;;;;5003961;28;20417;-79
2023/07/06 01:00:47;;;;;;;13.57;3.67;;;15.70;1.00;;;;;;4994666;28;20387;-79
2023/07/06 01:03:25;;;;;;;5.03;3.20;;;15.60;1.00;;;;;;4999600;28;20494;-81
2023/07/06 01:09:15;;;;;;;4.60;2.90;;;15.70;1.00;;;;;;5012924;28;20532;-80
2023/07/06 01:15:03;;;;;;;3.63;2.73;;;15.60;1.00;;;;;;4988446;28;20583;-79
2023/07/06 01:17:45;;;;;;;5.10;2.83;;;15.50;1.00;;;;;;5000378;28;20768;-73
2023/07/06 01:20:44;;;;;;;3.20;2.90;;;15.40;1.00;;;;;;4999246;28;20432;-73
2023/07/06 01:23:40;;;;;;;4.93;3.03;;;15.20;1.00;;;;;;4993039;28;20907;-73
2023/07/06 01:26:12;;;;;;;9.73;3.33;;;15.10;1.00;;;;;;4997564;28;20828;-73
2023/07/06 01:29:05;;;;;;;12.07;3.40;;;15.10;1.00;;;;;;4998093;28;20473;-73
2023/07/06 01:35:01;;;;;;;6.70;3.30;;;14.90;1.00;;;;;;4984101;28;20419;-79
2023/07/06 01:37:43;;;;;;;10.50;3.67;;;14.80;1.00;;;;;;5010807;28;20477;-79
2023/07/06 01:40:25;;;;;;;5.80;3.53;;;14.70;1.00;;;;;;4992751;28;20485;-80
2023/07/06 01:46:45;;;;;;;3.90;3.00;;;14.50;1.00;;;;;;4997630;28;20518;-78
2023/07/06 01:53:24;;;;;;;8.47;3.40;;;14.40;1.00;;;;;;4997567;28;20812;-79
2023/07/06 01:56:17;;;;;;;8.13;3.70;;;14.40;1.00;;;;;;4981592;28;20436;-79
2023/07/06 02:02:07;;;;;;;7.80;3.30;;;14.20;1.00;;;;;;5001409;28;20466;-73
2023/07/06 02:04:35;;;;;;;6.00;3.83;;;14.00;1.00;;;;;;5002250;28;20395;-74
2023/07/06 02:07:04;;;;;;;7.27;3.50;;;14.00;1.00;;;;;;4998166;28;20522;-73
2023/07/06 02:09:30;;;;;;;7.00;3.07;;;14.00;1.00;;;;;;4996064;28;20455;-73
2023/07/06 02:11:56;;;;;;;5.00;3.60;;;13.90;1.00;;;;;;5001787;28;20441;-73
2023/07/06 02:14:25;;;;;;;5.80;3.43;;;13.80;1.00;;;;;;4997301;28;20210;-73
2023/07/06 02:16:51;;;;;;;4.07;2.83;;;13.90;1.00;;;;;;4995554;28;20437;-73
2023/07/06 02:19:20;;;;;;;4.40;4.00;;;13.80;1.00;;;;;;4996706;28;20439;-73
2023/07/06 02:21:49;;;;;;;7.10;3.73;;;13.80;1.00;;;;;;4997604;28;20634;-73
2023/07/06 02:24:14;;;;;;;6.80;3.53;;;13.90;1.00;;;;;;4999511;28;20921;-73
2023/07/06 02:26:40;;;;;;;6.10;3.87;;;14.00;1.00;;;;;;4994523;28;20422;-73
2023/07/06 02:29:07;;;;;;;5.30;3.33;;;14.00;1.00;;;;;;4996255;28;20633;-73
2023/07/06 02:31:34;;;;;;;4.63;3.27;;;14.00;1.00;;;;;;5009259;28;20178;-73
2023/07/06 02:34:37;;;;;;;5.50;3.30;;;13.90;1.00;;;;;;5001355;28;20454;-81
2023/07/06 02:40:43;;;;;;;4.00;3.60;;;13.90;1.00;;;;;;4977588;28;20406;-79
2023/07/06 02:43:30;;;;;;;4.40;3.47;;;13.90;1.00;;;;;;4995071;28;20425;-79
2023/07/06 02:45:56;;;;;;;4.97;3.77;;;13.80;1.00;;;;;;5010225;28;20462;-79
2023/07/06 02:48:24;;;;;;;8.20;3.87;;;13.70;1.00;;;;;;5012660;28;20416;-73
2023/07/06 02:50:50;;;;;;;4.17;3.13;;;13.70;1.00;;;;;;4994890;28;20228;-73
2023/07/06 02:53:17;;;;;;;4.30;3.23;;;13.50;1.00;;;;;;4996200;28;20413;-73
2023/07/06 02:59:07;;;;;;;9.20;3.50;;;13.50;1.00;;;;;;5010881;28;20877;-85
2023/07/06 03:01:43;;;;;;;8.60;3.70;;;13.30;1.00;;;;;;5006441;28;20412;-84
2023/07/06 03:04:11;;;;;;;9.43;3.97;;;13.30;1.00;;;;;;4998876;28;20757;-91
2023/07/06 03:06:49;;;;;;;5.93;3.20;;;13.90;1.00;;;;;;5009927;28;20444;-91
2023/07/06 03:10:07;;;;;;;4.53;3.70;;;13.70;1.00;;;;;;4987211;28;20389;-90
2023/07/06 03:23:18;;;;;;;5.70;3.70;;;13.00;1.00;;;;;;5004491;28;20486;-84
2023/07/06 03:26:13;;;;;;;8.43;4.23;;;12.90;1.00;;;;;;4994965;28;20971;-85
2023/07/06 03:28:43;;;;;;;8.53;4.30;;;12.90;1.00;;;;;;4990009;28;20924;-84
2023/07/06 03:31:32;;;;;;;6.43;4.47;;;12.90;1.00;;;;;;5002912;28;20501;-84
2023/07/06 03:34:45;;;;;;;5.80;3.90;;;12.90;1.00;;;;;;4990916;28;20384;-91
2023/07/06 03:37:43;;;;;;;7.40;4.37;;;12.80;1.00;;;;;;4993397;28;20419;-91
2023/07/06 03:40:29;;;;;;;7.33;3.80;;;12.80;1.00;;;;;;5004089;28;20387;-91
2023/07/06 03:42:56;;;;;;;4.30;3.33;;;12.70;1.00;;;;;;5002355;28;20472;-91
2023/07/06 03:45:46;;;;;;;4.77;3.70;;;12.70;1.00;;;;;;4999245;28;20488;-91
2023/07/06 03:48:16;;;;;;;10.53;4.63;;;12.70;1.00;;;;;;4996477;28;20503;-85
2023/07/06 04:00:48;;;;;;;4.77;3.67;;;12.60;1.00;;;;;;5004448;28;20442;-84
2023/07/06 04:03:26;;;;;;;7.97;4.60;;;12.60;1.00;;;;;;4994898;28;20930;-91
2023/07/06 04:19:19;;;;;;;4.73;3.23;;;12.60;1.00;;;;;;5011530;28;20370;-90
2023/07/06 04:26:00;;;;;;;4.90;3.77;;;12.70;1.00;;;;;;5006208;28;20385;-90
2023/07/06 04:31:48;;;;;;;8.07;4.00;;;12.80;1.00;;;;;;5000016;28;20405;-90
2023/07/06 04:34:39;;;;;;;7.23;3.83;;;12.80;1.00;;;;;;4995015;28;20763;-87
2023/07/06 04:37:05;;;;;;;9.67;3.90;;;12.90;1.00;;;;;;5009773;28;20663;-86
2023/07/06 04:42:55;;;;;;;14.13;3.73;;;12.90;1.00;;;;;;4991895;28;20521;-85
2023/07/06 04:45:57;;;;;;;8.13;4.60;;;12.90;1.00;;;;;;4991331;28;20447;-86
2023/07/06 04:51:45;;;;;;;6.90;3.93;;;13.10;1.00;;;;;;4982083;28;20491;-86
2023/07/06 04:57:56;;;;;;;6.00;4.43;;;13.20;1.00;;;;;;4995354;28;20209;-86
2023/07/06 05:04:12;;;;;;;8.60;4.10;;;13.30;1.00;;;;;;4993988;28;20459;-90
2023/07/06 05:07:18;;;;;;;8.40;4.40;;;13.50;1.00;;;;;;5002546;28;20445;-90
2023/07/06 05:10:20;;;;;;;5.67;3.53;;;13.60;1.00;;;;;;5002602;28;20452;-90
2023/07/06 05:16:08;;;;;;;6.67;3.90;;;13.80;1.00;;;;;;4984061;28;20378;-91
2023/07/06 05:21:57;;;;;;;9.40;4.30;;;14.00;1.00;;;;;;5005409;28;20640;-87
2023/07/06 05:27:55;;;;;;;7.23;3.93;;;14.40;1.00;;;;;;4975835;28;20504;-86
2023/07/06 05:33:42;;;;;;;8.50;4.20;;;14.60;1.00;;;;;;4980036;28;20356;-89
2023/07/06 05:39:30;;;;;;;5.00;3.93;;;15.00;1.00;;;;;;4999996;28;20185;-90
2023/07/06 05:42:31;;;;;;;5.90;4.50;;;15.20;1.00;;;;;;4996551;28;20424;-90
2023/07/06 05:48:48;;;;;;;11.93;5.30;;;15.60;1.00;;;;;;5014402;28;21012;-90
2023/07/06 05:54:36;;;;;;;6.17;4.47;;;15.70;1.00;;;;;;5004767;28;20511;-90
2023/07/06 06:00:36;;;;;;;4.47;3.90;;;16.10;1.00;;;;;;5002573;28;20189;-90
2023/07/06 06:03:51;;;;;;;10.50;3.73;;;16.30;1.00;;;;;;5000590;28;20425;-90
2023/07/06 06:06:50;;;;;;;9.40;3.90;;;16.40;1.00;;;;;;5013944;28;20510;-89
2023/07/06 06:09:16;;;;;;;6.03;3.57;;;16.60;1.00;;;;;;5009641;28;20429;-90
2023/07/06 06:12:07;;;;;;;15.93;3.80;;;16.70;1.00;;;;;;4995984;28;20441;-90
2023/07/06 06:15:10;;;;;;;13.30;4.07;;;16.80;1.00;;;;;;5008783;28;20498;-90
2023/07/06 06:17:44;;;;;;;10.50;3.90;;;17.00;1.00;;;;;;5004262;28;20421;-83
2023/07/06 06:20:31;;;;;;;5.10;3.83;;;17.10;1.00;;;;;;5005915;28;20798;-89
2023/07/06 06:23:48;;;;;;;8.37;3.90;;;17.40;1.00;;;;;;5000645;28;20434;-89
2023/07/06 06:26:20;;;;;;;14.87;3.70;;;17.40;1.00;;;;;;4993714;28;20464;-89
2023/07/06 06:29:13;;;;;;;9.47;3.90;;;17.40;1.00;;;;;;4987707;28;20434;-90
2023/07/06 06:32:19;;;;;;;8.60;4.07;;;17.50;1.00;;;;;;4995430;28;20442;-90
2023/07/06 06:35:33;;;;;;;6.00;3.50;;;17.60;1.00;;;;;;4995144;28;20394;-90
2023/07/06 06:41:21;;;;;;;6.03;3.30;;;17.70;1.00;;;;;;4997432;28;20385;-90
2023/07/06 06:44:07;;;;;;;3.80;2.90;;;17.90;1.00;;;;;;5002421;28;20425;-90
2023/07/06 06:49:54;;;;;;;17.10;3.57;;;18.10;1.00;;;;;;4992809;28;20426;-88
2023/07/06 06:53:06;;;;;;;6.27;2.77;;;18.30;1.00;;;;;;4996100;28;20525;-87
2023/07/06 06:55:49;;;;;;;10.13;2.90;;;18.40;1.00;;;;;;5031796;28;20199;-87
2023/07/06 06:58:48;;;;;;;18.43;2.77;;;18.80;1.00;;;;;;4996375;28;20418;-88
2023/07/06 07:04:38;;;;;;;7.80;2.73;;;18.90;1.00;;;;;;5008007;28;20411;-89
2023/07/06 07:07:04;;;;;;;3.50;2.70;;;18.90;1.00;;;;;;4995744;28;20488;-89
2023/07/06 07:12:53;;;;;;;4.30;2.10;;;19.20;1.00;;;;;;5016118;28;20508;-89
2023/07/06 07:15:19;;;;;;;5.80;2.40;;;19.20;1.00;;;;;;5026766;28;20421;-89
2023/07/06 07:18:02;;;;;;;7.90;2.97;;;19.20;1.00;;;;;;4995392;28;20914;-89
2023/07/06 07:20:51;;;;;;;6.20;3.00;;;19.20;1.00;;;;;;4976451;28;20186;-89
2023/07/06 07:30:13;;;;;;;5.23;1.93;;;19.50;1.00;;;;;;4981799;28;20450;-89
2023/07/06 07:32:43;;;;;;;5.30;2.00;;;19.70;1.00;;;;;;5007460;28;20424;-89
2023/07/06 07:35:31;;;;;;;2.77;1.30;;;19.70;1.00;;;;;;5001156;28;20417;-89
2023/07/06 07:41:19;;;;;;;5.40;1.40;;;19.90;1.00;;;;;;4994437;28;20495;-94
2023/07/06 07:43:47;;;;;;;3.90;1.83;;;20.00;1.00;;;;;;4992606;28;20396;-83
2023/07/06 07:46:28;;;;;;;3.37;1.93;;;20.20;1.00;;;;;;4991387;28;20455;-83
2023/07/06 07:48:54;;;;;;;1.37;1.27;;;20.30;1.00;;;;;;5005892;28;20414;-83
2023/07/06 07:51:37;;;;;;;2.83;1.30;;;20.40;1.00;;;;;;5008436;28;20500;-83
2023/07/06 07:54:19;;;;;;;5.73;1.43;;;20.60;1.00;;;;;;4979953;28;20206;-83
2023/07/06 07:56:45;;;;;;;1.40;1.30;;;20.60;1.00;;;;;;5013717;28;20447;-84
2023/07/06 07:59:11;;;;;;;2.10;1.07;;;20.60;1.00;;;;;;4996632;28;20422;-82
2023/07/06 08:01:50;;;;;;;4.50;0.93;;;20.70;1.00;;;;;;5006408;28;20178;-83
2023/07/06 08:04:17;;;;;;;1.63;1.20;;;20.70;1.00;;;;;;5007787;28;20183;-82
2023/07/06 08:06:43;;;;;;;3.13;1.20;;;20.80;1.00;;;;;;4996827;28;20528;-83
2023/07/06 08:12:37;;;;;;;5.70;1.30;;;21.00;1.00;;;;;;4991377;28;20448;-83
2023/07/06 08:15:07;;;;;;;4.10;1.30;;;21.00;1.00;;;;;;5001162;28;20418;-82
2023/07/06 08:17:36;;;;;;;3.63;1.00;;;20.90;1.00;;;;;;4976682;28;20814;-81
2023/07/06 08:20:06;;;;;;;1.47;1.20;;;21.00;1.00;;;;;;5003219;28;20490;-82
2023/07/06 08:22:37;;;;;;;1.90;1.13;;;21.00;1.00;;;;;;5005365;28;20957;-86
2023/07/06 08:25:08;;;;;;;4.87;1.43;;;21.10;1.00;;;;;;4989589;28;20961;-86
2023/07/06 08:27:35;;;;;;;4.53;1.00;;;21.20;1.00;;;;;;4990626;28;20473;-85
2023/07/06 08:30:01;;;;;;;1.47;1.30;;;21.20;1.00;;;;;;4994220;28;20969;-84
2023/07/06 08:32:27;;;;;;;2.50;1.17;;;21.40;1.00;;;;;;4993075;28;20594;-85
2023/07/06 08:34:53;;;;;;;6.73;0.90;;;21.40;1.00;;;;;;4992616;28;20882;-86
2023/07/06 08:37:25;;;;;;;3.47;1.40;;;21.60;1.00;;;;;;4991333;28;20191;-83
2023/07/06 08:39:55;;;;;;;3.13;1.37;;;21.60;1.00;;;;;;5001723;28;20519;-82
2023/07/06 08:42:25;;;;;;;6.40;1.27;;;21.80;1.00;;;;;;4993511;28;20486;-82
2023/07/06 08:44:55;;;;;;;2.80;1.30;;;21.80;1.00;;;;;;4988363;28;20947;-82
2023/07/06 08:47:25;;;;;;;1.17;0.90;;;22.00;1.00;;;;;;5004812;28;20463;-82
2023/07/06 08:53:14;;;;;;;6.33;2.03;;;22.20;1.00;;;;;;4989591;28;20405;-82
2023/07/06 08:55:49;;;;;;;3.13;1.60;;;22.20;1.00;;;;;;4987195;28;20948;-82
2023/07/06 09:01:37;;;;;;;4.00;1.30;;;22.30;1.00;;;;;;5001277;28;20421;-81
2023/07/06 09:04:56;;;;;;;4.20;1.10;;;22.30;1.00;;;;;;4992889;28;20915;-81
2023/07/06 09:07:45;;;;;;;2.93;1.60;;;22.20;1.00;;;;;;4987097;28;20542;-86
2023/07/06 09:10:31;;;;;;;2.70;2.33;;;22.20;1.00;;;;;;4992638;28;21073;-85
2023/07/06 09:13:42;;;;;;;2.37;1.10;;;22.20;1.00;;;;;;4990346;28;20417;-85
2023/07/06 09:22:51;;;;;;;1.20;0.90;;;22.30;1.00;;;;;;4990072;28;20404;-81
2023/07/06 09:29:19;;;;;;;2.47;1.20;;;22.30;1.00;;;;;;4997686;28;20230;-82
2023/07/06 09:31:49;;;;;;;2.40;1.20;;;22.60;1.00;;;;;;4966514;28;20448;-82
2023/07/06 09:51:24;;;;;;;2.93;1.10;;;23.50;1.00;;;;;;4988567;28;20418;-82
2023/07/06 09:54:36;;;;;;;1.47;1.17;;;23.60;1.00;;;;;;4997974;28;20866;-86
2023/07/06 09:57:11;;;;;;;4.60;1.10;;;23.70;1.00;;;;;;4992004;28;20472;-86
2023/07/06 10:03:26;;;;;;;2.23;1.43;;;23.60;1.00;;;;;;4997623;28;20419;-86
2023/07/06 10:16:07;;;;;;;4.10;1.60;;;24.00;1.00;;;;;;5008262;28;20759;-82
2023/07/06 10:25:27;;;;;;;2.13;1.30;;;24.40;1.00;;;;;;5012928;28;20414;-85
2023/07/06 10:28:16;;;;;;;2.10;1.30;;;24.30;1.00;;;;;;4992553;28;20482;-86
2023/07/06 10:34:07;;;;;;;4.60;1.00;;;24.30;1.00;;;;;;5001098;28;20991;-86
2023/07/06 10:39:58;;;;;;;2.90;1.17;;;24.80;1.00;;;;;;4990576;28;20455;-81
2023/07/06 10:42:47;;;;;;;4.63;1.20;;;24.80;1.00;;;;;;4999015;28;20901;-81
2023/07/06 10:45:56;;;;;;;1.93;1.30;;;25.10;1.00;;;;;;4993862;28;20448;-81
2023/07/06 10:52:01;;;;;;;2.33;1.20;;;25.30;1.00;;;;;;5002908;28;20898;-83
2023/07/06 10:54:55;;;;;;;1.20;1.10;;;25.30;1.00;;;;;;5006347;28;20430;-81
2023/07/06 10:57:48;;;;;;;1.40;1.30;;;25.00;1.00;;;;;;4994877;28;20450;-81
2023/07/06 11:11:02;;;;;;;1.63;1.00;;;25.10;1.00;;;;;;5011963;28;20456;-81
2023/07/06 11:17:27;;;;;;;2.13;1.20;;;25.20;1.00;;;;;;4983638;28;20432;-81
2023/07/06 11:27:18;;;;;;;1.13;1.13;;;25.80;1.00;;;;;;4993648;28;20460;-85
2023/07/06 11:34:01;;;;;;;2.70;1.20;;;25.60;1.00;;;;;;4976659;28;20494;-86
2023/07/06 11:40:19;;;;;;;1.83;1.27;;;25.90;1.00;;;;;;5003408;28;20451;-81
2023/07/06 11:53:09;;;;;;;2.10;1.00;;;25.90;1.00;;;;;;5013575;28;20490;-82
2023/07/06 11:55:50;;;;;;;1.57;1.23;;;25.90;1.00;;;;;;4989695;28;20436;-82
2023/07/06 12:01:45;;;;;;;2.70;1.10;;;25.40;1.00;;;;;;4995049;28;20388;-82
2023/07/06 12:04:20;;;;;;;1.10;1.00;;;25.40;1.00;;;;;;4993644;28;20464;-82
2023/07/06 12:13:52;;;;;;;1.47;1.10;;;25.80;1.00;;;;;;4975424;28;20521;-82
2023/07/06 12:19:41;;;;;;;2.17;1.07;;;25.90;1.00;;;;;;4975554;28;20378;-82
2023/07/06 12:22:48;;;;;;;9.00;1.00;;;25.90;1.00;;;;;;4993486;28;20470;-81
2023/07/06 12:32:28;;;;;;;1.33;1.10;;;26.20;1.00;;;;;;4992449;28;20936;-82
2023/07/06 12:35:43;;;;;;;1.27;1.10;;;26.30;1.00;;;;;;4984587;28;20435;-81
2023/07/06 12:48:20;;;;;;;1.10;1.00;;;26.90;1.00;;;;;;4995450;28;20425;-86
2023/07/06 12:51:39;;;;;;;8.80;1.20;;;26.80;1.00;;;;;;4998882;28;20914;-87
2023/07/06 12:54:19;;;;;;;2.60;1.17;;;26.70;1.00;;;;;;4998152;28;20432;-81
2023/07/06 13:03:29;;;;;;;1.00;1.00;;;26.80;1.00;;;;;;5010440;28;20410;-81
2023/07/06 13:06:01;;;;;;;3.40;1.30;;;26.70;1.00;;;;;;4993911;28;20501;-82
2023/07/06 13:15:20;;;;;;;2.00;1.10;;;27.10;1.00;;;;;;5000321;28;20493;-81
2023/07/06 13:17:49;;;;;;;4.97;1.30;;;27.00;1.00;;;;;;5000693;28;20985;-81
2023/07/06 13:24:01;;;;;;;1.30;1.17;;;27.10;1.00;;;;;;4994053;28;20415;-85
2023/07/06 13:29:50;;;;;;;9.53;1.20;;;27.40;1.00;;;;;;4984389;28;20476;-86
2023/07/06 13:35:37;;;;;;;2.80;1.20;;;27.60;1.00;;;;;;5003021;28;20476;-85
2023/07/06 13:38:55;;;;;;;9.53;1.30;;;27.60;1.00;;;;;;5003545;28;20941;-86
2023/07/06 13:48:04;;;;;;;11.80;1.37;;;27.60;1.00;;;;;;4975100;28;20466;-86
2023/07/06 13:54:36;;;;;;;3.80;1.13;;;27.80;1.00;;;;;;5003553;28;20443;-82
2023/07/06 13:57:25;;;;;;;3.27;1.40;;;27.80;1.00;;;;;;5001770;28;20853;-84
2023/07/06 14:03:15;;;;;;;1.60;1.30;;;27.50;1.00;;;;;;4997740;28;20749;-84
2023/07/06 14:06:03;;;;;;;1.83;1.17;;;27.20;1.00;;;;;;4996623;28;20430;-84
2023/07/06 14:15:37;;;;;;;1.37;1.27;;;27.50;1.00;;;;;;4988612;28;20900;-82
2023/07/06 14:18:03;;;;;;;11.10;1.50;;;27.70;1.00;;;;;;5005499;28;20438;-81
2023/07/06 14:23:56;;;;;;;3.33;1.10;;;27.80;1.00;;;;;;4987215;28;20830;-84
2023/07/06 14:26:25;;;;;;;1.93;1.20;;;27.80;1.00;;;;;;5015354;28;20473;-83
2023/07/06 14:28:51;;;;;;;5.10;1.30;;;28.00;1.00;;;;;;5014428;28;20435;-84
2023/07/06 14:38:03;;;;;;;2.60;1.30;;;28.30;1.00;;;;;;4995617;28;20442;-84
2023/07/06 14:41:05;;;;;;;2.60;1.23;;;28.60;1.00;;;;;;5008616;28;20505;-85
2023/07/06 14:44:18;;;;;;;4.33;1.30;;;28.70;1.00;;;;;;5005525;28;20447;-86
2023/07/06 14:50:25;;;;;;;1.10;1.00;;;29.10;1.00;;;;;;4980773;28;20828;-86
2023/07/06 14:56:13;;;;;;;2.20;1.10;;;29.30;1.00;;;;;;4992807;28;20451;-86
2023/07/06 15:05:23;;;;;;;4.00;1.00;;;29.50;1.00;;;;;;5014061;28;20937;-85
2023/07/06 15:14:33;;;;;;;2.50;1.30;;;30.80;1.00;;;;;;4999276;28;20526;-85
2023/07/06 15:23:55;;;;;;;1.10;1.00;;;34.90;1.00;;;;;;5008499;28;21101;-86
2023/07/06 15:26:21;;;;;;;2.30;1.00;;;37.30;1.00;;;;;;4996559;28;20460;-87
2023/07/06 15:29:37;;;;;;;2.13;1.00;;;38.00;1.00;;;;;;5009008;28;20995;-84
2023/07/06 15:32:13;;;;;;;2.50;1.13;;;38.00;1.00;;;;;;4997503;28;20261;-83
2023/07/06 15:38:04;;;;;;;2.13;1.00;;;38.30;1.00;;;;;;4990064;28;20934;-84
2023/07/06 15:43:51;;;;;;;3.37;0.90;;;40.70;1.00;;;;;;4976064;28;20433;-88
2023/07/06 15:53:10;;;;;;;5.57;1.00;;;41.80;1.00;;;;;;5011768;28;20410;-87
2023/07/06 15:59:31;;;;;;;0.80;0.80;;;41.20;1.00;;;;;;4985002;28;20544;-85
2023/07/06 16:01:58;;;;;;;3.07;0.90;;;42.30;1.00;;;;;;4993008;28;20526;-85
2023/07/06 16:04:28;;;;;;;1.43;0.90;;;44.30;1.00;;;;;;4998470;28;20420;-85
2023/07/06 16:07:01;;;;;;;4.57;1.00;;;44.30;1.00;;;;;;4998961;28;20571;-85
2023/07/06 16:09:37;;;;;;;0.80;0.80;;;45.30;1.00;;;;;;4981721;28;20919;-82
2023/07/06 16:12:31;;;;;;;1.57;0.90;;;44.10;1.00;;;;;;4995897;28;20961;-83
2023/07/06 16:18:18;;;;;;;3.03;0.90;;;42.80;1.00;;;;;;4975015;28;20878;-83
2023/07/06 16:21:13;;;;;;;9.90;1.13;;;42.30;1.00;;;;;;5001348;28;20444;-85
2023/07/06 16:27:13;;;;;;;3.00;1.27;;;43.50;1.00;;;;;;4997312;28;20427;-86
2023/07/06 16:30:31;;;;;;;2.20;0.80;;;44.30;1.00;;;;;;4997756;28;20436;-85
2023/07/06 16:33:19;;;;;;;1.73;0.90;;;44.50;1.00;;;;;;4994439;28;20433;-84
2023/07/06 16:39:31;;;;;;;2.20;0.90;;;45.60;1.00;;;;;;4995490;28;20764;-86
2023/07/06 16:49:31;;;;;;;0.80;0.80;;;43.80;1.00;;;;;;4986843;28;20404;-87
2023/07/06 16:52:08;;;;;;;24.10;1.93;;;42.40;1.00;;;;;;4989816;28;20434;-86
2023/07/06 16:55:25;;;;;;;5.97;1.30;;;41.50;1.00;;;;;;4998198;28;20423;-87
2023/07/06 16:57:50;;;;;;;3.73;1.23;;;41.10;1.00;;;;;;5007869;28;20511;-84
2023/07/06 17:00:16;;;;;;;5.40;1.10;;;41.50;1.00;;;;;;4987045;28;20457;-89
2023/07/06 17:03:01;;;;;;;2.10;1.20;;;42.70;1.00;;;;;;5006177;28;20180;-84
2023/07/06 17:06:13;;;;;;;0.90;0.90;;;44.20;1.00;;;;;;4992024;28;20444;-86
2023/07/06 17:09:25;;;;;;;3.30;0.97;;;45.00;1.00;;;;;;4994599;28;20966;-87
2023/07/06 17:12:19;;;;;;;1.03;0.90;;;46.40;1.00;;;;;;5006440;28;20909;-84
2023/07/06 17:15:30;;;;;;;1.73;1.10;;;47.20;1.00;;;;;;4989463;28;20501;-83
2023/07/06 17:18:13;;;;;;;4.60;1.00;;;47.90;1.00;;;;;;4992937;28;20465;-83
2023/07/06 17:24:01;;;;;;;1.70;1.10;;;47.70;1.00;;;;;;5000346;28;20843;-83
2023/07/06 17:26:31;;;;;;;2.80;1.10;;;47.00;1.00;;;;;;5001129;28;20424;-87
2023/07/06 17:29:31;;;;;;;3.43;1.13;;;46.80;1.00;;;;;;4992029;28;20421;-87
2023/07/06 17:32:43;;;;;;;1.90;0.90;;;47.30;1.00;;;;;;5001956;28;20427;-86
2023/07/06 17:35:08;;;;;;;2.20;1.10;;;47.30;1.00;;;;;;4996280;28;20421;-87
2023/07/06 17:38:01;;;;;;;1.00;0.90;;;46.80;1.00;;;;;;4986873;28;20515;-88
2023/07/06 17:41:02;;;;;;;7.40;1.23;;;46.20;1.00;;;;;;5003559;28;20175;-88
2023/07/06 17:43:43;;;;;;;1.40;1.10;;;42.40;1.00;;;;;;4989112;28;20418;-84
2023/07/06 17:53:07;;;;;;;9.47;1.43;;;36.70;1.00;;;;;;5009766;28;20402;-86
2023/07/06 17:58:55;;;;;;;4.23;1.40;;;;;;;;;;4998550;28;20445;-86
2023/07/06 18:01:31;;;;;;;2.10;1.20;;;;;;;;;;5002791;28;20834;-85
2023/07/06 18:04:14;;;;;;;6.30;1.37;;;33.00;1.00;;;;;;5001549;28;20511;-85
2023/07/06 18:14:01;;;;;;;5.83;1.43;;;30.20;1.00;;;;;;5009949;28;20408;-84
2023/07/06 18:17:01;;;;;;;1.40;1.30;;;28.50;1.00;;;;;;4988772;28;20494;-82
2023/07/06 18:19:28;;;;;;;8.83;1.50;;;28.10;1.00;;;;;;4983545;28;20426;-88
2023/07/06 18:22:48;;;;;;;1.43;1.33;;;28.00;1.00;;;;;;4991545;28;20436;-88
2023/07/06 18:25:19;;;;;;;1.47;1.00;;;27.60;1.00;;;;;;4993405;28;20414;-92
2023/07/06 18:28:08;;;;;;;4.03;1.80;;;26.90;1.00;;;;;;4977590;28;20444;-92
2023/07/06 18:31:01;;;;;;;2.13;1.27;;;26.90;1.00;;;;;;4988169;28;20475;-92
2023/07/06 18:33:43;;;;;;;4.23;1.57;;;26.60;1.00;;;;;;4998264;28;20413;-92
2023/07/06 18:43:01;;;;;;;3.50;1.37;;;25.60;1.00;;;;;;4989414;28;20482;-86
2023/07/06 18:46:01;;;;;;;2.77;1.47;;;25.30;1.00;;;;;;4999475;28;20428;-86
2023/07/06 18:48:37;;;;;;;1.77;1.43;;;25.10;1.00;;;;;;5004197;28;20431;-87
2023/07/06 18:57:47;;;;;;;3.47;1.80;;;;;;;;;;4992509;28;20547;-83
2023/07/06 19:00:13;;;;;;;5.60;1.60;;;23.80;1.00;;;;;;5011049;28;20492;-83
2023/07/06 19:02:39;;;;;;;3.10;1.40;;;23.80;1.00;;;;;;5005621;28;20824;-83
2023/07/06 19:06:01;;;;;;;1.90;1.53;;;23.60;1.00;;;;;;5015862;28;20500;-83
2023/07/06 19:08:32;;;;;;;2.80;1.70;;;23.20;1.00;;;;;;4987650;28;20177;-83
2023/07/06 19:11:25;;;;;;;1.70;1.60;;;23.10;1.00;;;;;;4997693;28;20448;-83
2023/07/06 19:17:31;;;;;;;4.10;1.70;;;22.50;1.00;;;;;;4990267;28;20517;-83
2023/07/06 19:20:19;;;;;;;6.97;2.10;;;22.40;1.00;;;;;;4995107;28;20525;-83
2023/07/06 19:23:01;;;;;;;1.90;1.70;;;22.20;1.00;;;;;;5000941;28;20418;-82
2023/07/06 19:25:32;;;;;;;1.43;1.30;;;21.80;1.00;;;;;;5011757;28;20737;-83
2023/07/06 19:28:01;;;;;;;4.20;1.57;;;21.60;1.00;;;;;;5003580;28;20453;-83
2023/07/06 19:30:33;;;;;;;3.03;1.90;;;21.50;1.00;;;;;;5002852;28;20443;-83
2023/07/06 19:33:02;;;;;;;3.87;1.83;;;21.30;1.00;;;;;;4994521;28;20945;-83
2023/07/06 19:36:02;;;;;;;2.60;1.60;;;21.10;1.00;;;;;;5004123;28;20417;-83
2023/07/06 19:38:31;;;;;;;3.20;1.60;;;21.00;1.00;;;;;;5002841;28;20431;-83
2023/07/06 19:41:01;;;;;;;6.50;2.23;;;20.80;1.00;;;;;;5000245;28;20463;-83
2023/07/06 19:43:31;;;;;;;17.77;1.53;;;20.70;1.00;;;;;;5004176;28;20433;-83
2023/07/06 19:46:31;;;;;;;1.73;1.63;;;20.60;1.00;;;;;;4994195;28;20899;-83
2023/07/06 19:49:13;;;;;;;1.50;1.40;;;20.40;1.00;;;;;;5000958;28;20858;-83
2023/07/06 19:51:43;;;;;;;2.50;1.60;;;20.30;1.00;;;;;;4999387;28;20440;-83
2023/07/06 19:55:00;;;;;;;2.80;1.70;;;20.10;1.00;;;;;;4997447;28;20434;-83
2023/07/06 19:57:32;;;;;;;2.33;1.70;;;19.90;1.00;;;;;;4982046;28;20468;-83
2023/07/06 20:00:01;;;;;;;10.17;1.93;;;19.70;1.00;;;;;;5006226;28;20431;-83
2023/07/06 20:06:02;;;;;;;5.60;1.53;;;19.50;1.00;;;;;;5002793;28;20423;-83
2023/07/06 20:08:31;;;;;;;2.63;1.27;;;19.40;1.00;;;;;;4985913;28;20409;-83
2023/07/06 20:11:02;;;;;;;2.60;1.50;;;19.20;1.00;;;;;;4996133;28;20794;-81
2023/07/06 20:13:30;;;;;;;1.60;1.33;;;19.10;1.00;;;;;;4999860;28;20875;-72
2023/07/06 20:15:57;;;;;;;2.47;1.57;;;19.10;1.00;;;;;;5000699;28;20480;-72
2023/07/06 20:18:24;;;;;;;2.07;1.53;;;19.00;1.00;;;;;;4989634;28;20431;-72
2023/07/06 20:20:51;;;;;;;3.83;1.63;;;19.00;1.00;;;;;;5002719;28;20930;-72
2023/07/06 20:23:18;;;;;;;1.60;1.30;;;18.90;1.00;;;;;;5000351;28;20422;-72
2023/07/06 20:25:45;;;;;;;3.23;1.73;;;18.90;1.00;;;;;;4996602;28;20414;-72
2023/07/06 20:28:11;;;;;;;2.50;1.73;;;18.70;1.00;;;;;;5002272;28;20469;-78
2023/07/06 20:30:41;;;;;;;1.50;1.40;;;18.70;1.00;;;;;;5009968;28;20428;-72
2023/07/06 20:33:06;;;;;;;1.70;1.50;;;18.60;1.00;;;;;;5002341;28;20425;-72
2023/07/06 20:35:32;;;;;;;7.07;1.77;;;18.60;1.00;;;;;;5013042;28;20738;-72
2023/07/06 20:37:58;;;;;;;3.50;1.37;;;18.40;1.00;;;;;;5000362;28;20209;-72
2023/07/06 20:40:24;;;;;;;2.53;1.60;;;18.40;1.00;;;;;;5008462;28;20676;-72
2023/07/06 20:42:50;;;;;;;1.83;1.47;;;18.40;1.00;;;;;;4999129;28;20429;-72
2023/07/06 20:45:16;;;;;;;1.63;1.40;;;18.30;1.00;;;;;;4990753;28;20671;-72
2023/07/06 20:47:42;;;;;;;17.23;1.60;;;18.30;1.00;;;;;;4993390;28;20424;-72
2023/07/06 20:50:08;;;;;;;2.10;1.83;;;18.10;1.00;;;;;;4983365;28;20208;-72
2023/07/06 20:52:33;;;;;;;4.50;1.63;;;18.10;1.00;;;;;;4992723;28;20181;-72
2023/07/06 20:55:01;;;;;;;2.30;1.80;;;18.00;1.00;;;;;;4994363;28;20416;-72
2023/07/06 20:57:28;;;;;;;3.67;1.90;;;18.00;1.00;;;;;;4994046;28;20192;-72
2023/07/06 20:59:55;;;;;;;4.20;2.00;;;17.90;1.00;;;;;;4993650;28;20907;-71
2023/07/06 21:02:23;;;;;;;3.90;1.90;;;17.90;1.00;;;;;;4993276;28;20432;-72
2023/07/06 21:04:49;;;;;;;4.63;1.70;;;17.80;1.00;;;;;;4993773;28;20934;-72
2023/07/06 21:07:15;;;;;;;4.80;1.70;;;17.80;1.00;;;;;;4993916;28;20432;-72
2023/07/06 21:09:41;;;;;;;3.13;1.50;;;17.70;1.00;;;;;;5009220;28;20212;-72
2023/07/06 21:12:07;;;;;;;4.83;1.40;;;17.60;1.00;;;;;;4992221;28;20439;-72
2023/07/06 21:14:33;;;;;;;2.63;1.40;;;17.60;1.00;;;;;;4994006;28;20470;-72
2023/07/06 21:17:01;;;;;;;2.87;1.40;;;17.60;1.00;;;;;;4998697;28;20509;-80
2023/07/06 21:20:01;;;;;;;3.43;2.00;;;17.40;1.00;;;;;;4982656;28;20495;-80
2023/07/06 21:22:31;;;;;;;5.03;1.87;;;17.40;1.00;;;;;;4998493;28;20470;-80
2023/07/06 21:28:19;;;;;;;9.40;1.90;;;17.20;1.00;;;;;;5007701;28;20435;-80
2023/07/06 21:31:31;;;;;;;8.00;2.17;;;17.10;1.00;;;;;;4995368;28;20440;-80